Time,TemperatureF,DewpointF,PressureIn,WindDirection,WindDirectionDegrees,WindSpeedMPH,WindSpeedGustMPH,Humidity,HourlyPrecipIn,Conditions,Clouds,dailyrainin,SoftwareType,DateUTC
2013-01-09 00:02:00,42.2,38.3,30.37,NW,317,0.0,0.0,86,0.00,SCT,,0.00,WeatherDisplay:10.37,2013-01-09 05:02:00,
2013-01-09 00:17:00,41.8,37.9,30.37,NW,317,0.0,0.0,86,0.00,SCT,,0.00,WeatherDisplay:10.37,2013-01-09 05:17:00,
2013-01-09 00:32:00,41.8,37.9,30.36,NW,317,0.0,0.0,86,0.00,SCT,,0.00,WeatherDisplay:10.37,2013-01-09 05:32:00,
2013-01-09 00:47:00,41.8,38.2,30.36,NW,317,0.0,0.0,87,0.00,SCT,,0.00,WeatherDisplay:10.37,2013-01-09 05:47:00,
2013-01-09 01:02:00,42.1,38.5,30.35,NW,317,0.0,0.0,87,0.00,SCT,,0.00,WeatherDisplay:10.37,2013-01-09 06:02:00,
2013-01-09 01:17:00,42.8,38.9,30.34,NW,317,0.0,0.0,86,0.00,SCT,,0.00,WeatherDisplay:10.37,2013-01-09 06:17:00,
2013-01-09 01:32:00,42.6,38.7,30.35,NW,317,0.0,0.0,86,0.00,SCT,,0.00,WeatherDisplay:10.37,2013-01-09 06:32:00,
2013-01-09 01:47:00,42.3,38.4,30.35,NW,317,0.0,0.0,86,0.00,SCT,,0.00,WeatherDisplay:10.37,2013-01-09 06:47:00,
2013-01-09 02:02:00,41.8,37.9,30.36,NW,317,0.0,0.0,86,0.00,SCT,,0.00,WeatherDisplay:10.37,2013-01-09 07:02:00,
2013-01-09 02:17:00,41.8,38.2,30.37,NW,317,0.0,0.0,87,0.00,SCT,,0.00,WeatherDisplay:10.37,2013-01-09 07:17:00,
2013-01-09 02:32:00,42.3,39.0,30.37,NW,317,0.0,0.0,88,0.00,SCT,,0.00,WeatherDisplay:10.37,2013-01-09 07:32:00,
2013-01-09 02:47:00,42.6,39.0,30.37,NW,317,0.0,0.0,87,0.00,SCT,,0.00,WeatherDisplay:10.37,2013-01-09 07:47:00,
2013-01-09 03:02:00,42.9,39.0,30.36,NW,317,0.0,0.0,86,0.00,SCT,,0.00,WeatherDisplay:10.37,2013-01-09 08:02:00,
2013-01-09 03:17:00,42.9,39.0,30.36,NW,317,0.0,0.0,86,0.00,SCT,,0.00,WeatherDisplay:10.37,2013-01-09 08:17:00,
2013-01-09 03:32:00,42.6,38.7,30.36,NW,317,0.0,0.0,86,0.00,SCT,,0.00,WeatherDisplay:10.37,2013-01-09 08:32:00,
2013-01-09 03:47:00,42.5,38.3,30.36,NW,317,0.0,0.0,85,0.00,SCT,,0.00,WeatherDisplay:10.37,2013-01-09 08:47:00,
2013-01-09 04:02:00,42.1,37.9,30.35,NW,317,0.0,0.0,85,0.00,SCT,,0.00,WeatherDisplay:10.37,2013-01-09 09:02:00,
2013-01-09 04:17:00,41.6,37.1,30.35,NW,317,0.0,0.0,84,0.00,SCT,,0.00,WeatherDisplay:10.37,2013-01-09 09:17:00,
2013-01-09 04:32:00,41.1,36.6,30.35,NW,317,0.0,0.0,84,0.00,SCT,,0.00,WeatherDisplay:10.37,2013-01-09 09:32:00,
2013-01-09 04:47:00,40.3,35.9,30.35,NW,317,0.0,0.0,84,0.00,SCT,,0.00,WeatherDisplay:10.37,2013-01-09 09:47:00,
2013-01-09 05:02:00,39.9,35.5,30.36,NW,317,0.0,0.0,84,0.00,SCT,,0.00,WeatherDisplay:10.37,2013-01-09 10:02:00,
2013-01-09 05:17:00,39.5,35.1,30.36,NW,317,0.0,0.0,84,0.00,SCT,,0.00,WeatherDisplay:10.37,2013-01-09 10:17:00,
2013-01-09 05:32:00,39.1,35.0,30.36,NW,317,0.0,0.0,85,0.00,SCT,,0.00,WeatherDisplay:10.37,2013-01-09 10:32:00,
2013-01-09 05:47:00,38.8,34.7,30.35,NW,317,0.0,0.0,85,0.00,SCT,,0.00,WeatherDisplay:10.37,2013-01-09 10:47:00,
2013-01-09 06:02:00,38.3,34.2,30.36,NW,317,0.0,0.0,85,0.00,SCT,,0.00,WeatherDisplay:10.37,2013-01-09 11:02:00,
2013-01-09 06:17:00,38.0,33.9,30.36,NW,317,0.0,0.0,85,0.00,SCT,,0.00,WeatherDisplay:10.37,2013-01-09 11:17:00,
2013-01-09 06:32:00,37.8,33.7,30.36,NW,317,0.0,0.0,85,0.00,SCT,,0.00,WeatherDisplay:10.37,2013-01-09 11:32:00,
2013-01-09 06:47:00,37.5,33.7,30.36,NW,317,0.0,0.0,86,0.00,SCT,,0.00,WeatherDisplay:10.37,2013-01-09 11:47:00,
2013-01-09 07:02:00,37.2,33.4,30.38,NW,317,0.0,0.0,86,0.00,SCT,,0.00,WeatherDisplay:10.37,2013-01-09 12:02:00,
2013-01-09 07:17:00,37.0,33.2,30.39,NW,317,0.0,0.0,86,0.00,SCT,,0.00,WeatherDisplay:10.37,2013-01-09 12:17:00,
2013-01-09 07:32:00,36.8,33.0,30.40,NW,317,0.0,0.0,86,0.00,SCT,,0.00,WeatherDisplay:10.37,2013-01-09 12:32:00,
2013-01-09 07:47:00,36.6,32.8,30.40,NW,317,0.0,0.0,86,0.00,SCT,,0.00,WeatherDisplay:10.37,2013-01-09 12:47:00,
2013-01-09 08:02:00,36.5,32.7,30.40,NW,317,0.0,0.0,86,0.00,SCT,,0.00,WeatherDisplay:10.37,2013-01-09 13:02:00,
2013-01-09 08:17:00,36.6,33.1,30.41,NW,317,0.0,0.0,87,0.00,SCT,,0.00,WeatherDisplay:10.37,2013-01-09 13:17:00,
2013-01-09 08:32:00,36.6,33.1,30.42,NW,317,0.0,0.0,87,0.00,SCT,,0.00,WeatherDisplay:10.37,2013-01-09 13:32:00,
2013-01-09 08:47:00,37.3,34.1,30.42,NW,317,0.0,0.0,88,0.00,SCT,,0.00,WeatherDisplay:10.37,2013-01-09 13:47:00,
2013-01-09 09:02:00,42.4,39.6,30.42,NW,317,0.0,0.0,90,0.00,SCT,,0.00,WeatherDisplay:10.37,2013-01-09 14:02:00,
2013-01-09 09:17:00,44.6,40.0,30.42,NW,317,0.0,0.0,84,0.00,SCT,,0.00,WeatherDisplay:10.37,2013-01-09 14:17:00,
2013-01-09 09:32:00,46.7,40.2,30.43,NW,317,0.0,1.0,78,0.00,SCT,,0.00,WeatherDisplay:10.37,2013-01-09 14:32:00,
2013-01-09 09:47:00,47.6,40.8,30.44,NW,317,0.0,0.0,77,0.00,SCT,,0.00,WeatherDisplay:10.37,2013-01-09 14:47:00,
2013-01-09 10:02:00,48.3,40.7,30.44,NW,317,0.0,0.0,75,0.00,SCT,,0.00,WeatherDisplay:10.37,2013-01-09 15:02:00,
2013-01-09 10:17:00,48.8,40.9,30.44,NW,317,0.0,0.0,74,0.00,SCT,,0.00,WeatherDisplay:10.37,2013-01-09 15:17:00,
2013-01-09 10:32:00,49.6,41.3,30.44,NW,317,0.0,0.0,73,0.00,SCT,,0.00,WeatherDisplay:10.37,2013-01-09 15:32:00,
2013-01-09 10:47:00,50.5,41.8,30.43,NW,317,0.0,0.0,72,0.00,SCT,,0.00,WeatherDisplay:10.37,2013-01-09 15:47:00,
2013-01-09 11:02:00,53.6,43.3,30.42,NW,317,0.0,2.0,68,0.00,SCT,,0.00,WeatherDisplay:10.37,2013-01-09 16:02:00,
2013-01-09 11:17:00,55.6,43.6,30.41,NW,311,0.0,2.0,64,0.00,SCT,,0.00,WeatherDisplay:10.37,2013-01-09 16:17:00,
2013-01-09 11:32:00,58.1,46.0,30.40,NW,306,0.0,1.0,64,0.00,SCT,,0.00,WeatherDisplay:10.37,2013-01-09 16:32:00,
2013-01-09 11:47:00,58.9,45.9,30.38,South,178,0.0,3.0,62,0.00,SCT,,0.00,WeatherDisplay:10.37,2013-01-09 16:47:00,
2013-01-09 12:02:00,59.0,46.0,30.38,SE,140,1.0,3.0,62,0.00,SCT,,0.00,WeatherDisplay:10.37,2013-01-09 17:02:00,
2013-01-09 12:17:00,59.9,46.4,30.37,South,179,1.0,4.0,61,0.00,SCT,,0.00,WeatherDisplay:10.37,2013-01-09 17:17:00,
2013-01-09 12:32:00,61.5,47.5,30.36,South,185,0.0,5.0,60,0.00,SCT,,0.00,WeatherDisplay:10.37,2013-01-09 17:32:00,
2013-01-09 12:47:00,63.2,49.1,30.35,SSW,193,0.0,3.0,60,0.00,SCT,,0.00,WeatherDisplay:10.37,2013-01-09 17:47:00,
2013-01-09 13:02:00,63.2,49.1,30.34,SSE,149,1.0,4.0,60,0.00,SCT,,0.00,WeatherDisplay:10.37,2013-01-09 18:02:00,
2013-01-09 13:17:00,62.6,49.4,30.34,SSE,162,0.0,5.0,62,0.00,SCT,,0.00,WeatherDisplay:10.37,2013-01-09 18:17:00,
2013-01-09 13:32:00,61.6,48.9,30.34,SSE,149,0.0,4.0,63,0.00,SCT,,0.00,WeatherDisplay:10.37,2013-01-09 18:32:00,
2013-01-09 13:47:00,61.4,48.7,30.35,South,185,0.0,2.0,63,0.00,SCT,,0.00,WeatherDisplay:10.37,2013-01-09 18:47:00,
2013-01-09 14:02:00,61.8,49.1,30.35,SW,228,0.0,2.0,63,0.00,SCT,,0.00,WeatherDisplay:10.37,2013-01-09 19:02:00,
2013-01-09 14:17:00,61.8,49.0,30.35,SW,228,0.0,1.0,63,0.00,SCT,,0.00,WeatherDisplay:10.37,2013-01-09 19:17:00,
2013-01-09 14:32:00,62.1,48.9,30.35,NW,320,0.0,3.0,62,0.00,SCT,,0.00,WeatherDisplay:10.37,2013-01-09 19:32:00,
2013-01-09 14:47:00,62.1,48.9,30.35,South,173,0.0,5.0,62,0.00,SCT,,0.00,WeatherDisplay:10.37,2013-01-09 19:47:00,
2013-01-09 15:02:00,61.6,48.9,30.35,South,188,0.0,4.0,63,0.00,SCT,,0.00,WeatherDisplay:10.37,2013-01-09 20:02:00,
2013-01-09 15:17:00,61.6,48.9,30.36,SSW,207,0.0,2.0,63,0.00,SCT,,0.00,WeatherDisplay:10.37,2013-01-09 20:17:00,
2013-01-09 15:32:00,61.8,49.5,30.36,SW,219,0.0,2.0,64,0.00,SCT,,0.00,WeatherDisplay:10.37,2013-01-09 20:32:00,
2013-01-09 15:47:00,61.3,49.4,30.36,SW,224,0.0,2.0,65,0.00,SCT,,0.00,WeatherDisplay:10.37,2013-01-09 20:47:00,
2013-01-09 16:02:00,61.2,49.7,30.36,SW,233,0.0,1.0,66,0.00,SCT,,0.00,WeatherDisplay:10.37,2013-01-09 21:02:00,
2013-01-09 16:17:00,60.9,49.9,30.37,WSW,255,0.0,2.0,67,0.00,SCT,,0.00,WeatherDisplay:10.37,2013-01-09 21:17:00,
2013-01-09 16:32:00,60.5,49.9,30.36,West,269,1.0,3.0,68,0.00,SCT,,0.00,WeatherDisplay:10.37,2013-01-09 21:32:00,
2013-01-09 16:47:00,60.1,49.5,30.36,West,281,0.0,1.0,68,0.00,SCT,,0.00,WeatherDisplay:10.37,2013-01-09 21:47:00,
2013-01-09 17:02:00,59.8,49.6,30.37,West,281,0.0,0.0,69,0.00,SCT,,0.00,WeatherDisplay:10.37,2013-01-09 22:02:00,
2013-01-09 17:17:00,58.7,49.7,30.37,West,281,0.0,0.0,72,0.00,SCT,,0.00,WeatherDisplay:10.37,2013-01-09 22:17:00,
2013-01-09 17:32:00,58.2,49.2,30.37,West,281,0.0,0.0,72,0.00,SCT,,0.00,WeatherDisplay:10.37,2013-01-09 22:32:00,
2013-01-09 17:47:00,57.5,49.3,30.36,West,281,0.0,0.0,74,0.00,SCT,,0.00,WeatherDisplay:10.37,2013-01-09 22:47:00,
2013-01-09 18:02:00,58.1,49.1,30.36,SSW,194,0.0,1.0,72,0.00,SCT,,0.00,WeatherDisplay:10.37,2013-01-09 23:02:00,
2013-01-09 18:17:00,57.6,49.0,30.35,SSW,194,0.0,0.0,73,0.00,SCT,,0.00,WeatherDisplay:10.37,2013-01-09 23:17:00,
2013-01-09 18:32:00,57.3,48.7,30.37,SSW,194,0.0,1.0,73,0.00,SCT,,0.00,WeatherDisplay:10.37,2013-01-09 23:32:00,
2013-01-09 18:47:00,55.8,48.7,30.36,SSW,195,0.0,0.0,77,0.00,SCT,,0.00,WeatherDisplay:10.37,2013-01-09 23:47:00,
2013-01-09 19:02:00,55.4,49.0,30.37,SSW,195,0.0,0.0,79,0.00,SCT,,0.00,WeatherDisplay:10.37,2013-01-10 00:02:00,
2013-01-09 19:17:00,53.9,47.9,30.37,SSW,195,0.0,0.0,80,0.00,SCT,,0.00,WeatherDisplay:10.37,2013-01-10 00:17:00,
2013-01-09 19:32:00,54.2,48.5,30.37,SSW,195,0.0,0.0,81,0.00,SCT,,0.00,WeatherDisplay:10.37,2013-01-10 00:32:00,
2013-01-09 19:47:00,53.1,48.1,30.37,SSW,195,0.0,0.0,83,0.00,SCT,,0.00,WeatherDisplay:10.37,2013-01-10 00:47:00,
2013-01-09 20:02:00,52.3,47.3,30.39,SSW,195,0.0,0.0,83,0.00,SCT,,0.00,WeatherDisplay:10.37,2013-01-10 01:02:00,
2013-01-09 20:17:00,51.3,46.9,30.38,SSW,195,0.0,0.0,85,0.00,SCT,,0.00,WeatherDisplay:10.37,2013-01-10 01:17:00,
2013-01-09 20:32:00,50.7,46.7,30.38,SSW,195,0.0,0.0,86,0.00,SCT,,0.00,WeatherDisplay:10.37,2013-01-10 01:32:00,
2013-01-09 20:47:00,49.9,46.2,30.38,SSW,195,0.0,0.0,87,0.00,SCT,,0.00,WeatherDisplay:10.37,2013-01-10 01:47:00,
2013-01-09 21:02:00,49.5,46.1,30.39,SSW,195,0.0,0.0,88,0.00,SCT,,0.00,WeatherDisplay:10.37,2013-01-10 02:02:00,
2013-01-09 21:17:00,49.4,46.0,30.40,SSW,195,0.0,0.0,88,0.00,SCT,,0.00,WeatherDisplay:10.37,2013-01-10 02:17:00,
2013-01-09 21:32:00,49.2,45.8,30.39,SSW,195,0.0,0.0,88,0.00,SCT,,0.00,WeatherDisplay:10.37,2013-01-10 02:32:00,
2013-01-09 21:47:00,49.1,45.4,30.40,SSW,195,0.0,0.0,87,0.00,SCT,,0.00,WeatherDisplay:10.37,2013-01-10 02:47:00,
2013-01-09 22:02:00,48.8,45.1,30.40,SSW,195,0.0,0.0,87,0.00,SCT,,0.00,WeatherDisplay:10.37,2013-01-10 03:02:00,
2013-01-09 22:17:00,48.5,44.8,30.40,SSW,195,0.0,0.0,87,0.00,SCT,,0.00,WeatherDisplay:10.37,2013-01-10 03:17:00,
2013-01-09 22:32:00,48.3,44.6,30.40,SSW,195,0.0,0.0,87,0.00,SCT,,0.00,WeatherDisplay:10.37,2013-01-10 03:32:00,
2013-01-09 22:47:00,48.3,44.6,30.39,SSW,195,0.0,0.0,87,0.00,SCT,,0.00,WeatherDisplay:10.37,2013-01-10 03:47:00,
2013-01-09 23:02:00,48.2,44.5,30.39,SSW,195,0.0,0.0,87,0.00,SCT,,0.00,WeatherDisplay:10.37,2013-01-10 04:02:00,
2013-01-09 23:17:00,48.2,44.5,30.40,SSW,195,0.0,0.0,87,0.00,SCT,,0.00,WeatherDisplay:10.37,2013-01-10 04:17:00,
2013-01-09 23:32:00,48.3,44.6,30.40,SSW,195,0.0,0.0,87,0.00,SCT,,0.00,WeatherDisplay:10.37,2013-01-10 04:32:00,
2013-01-09 23:47:00,48.3,44.6,30.40,SSW,195,0.0,0.0,87,0.00,SCT,,0.00,WeatherDisplay:10.37,2013-01-10 04:47:00,